createdAt,value
2022-12-01T00:01:04.555Z,37.35
2022-12-01T00:03:31.815Z,42.17
2022-12-01T00:06:03.591Z,35.30
2022-12-01T00:08:31.066Z,42.38
2022-12-01T00:11:08.158Z,34.92
2022-12-01T00:13:35.519Z,47.15
2022-12-01T00:16:16.122Z,37.92
2022-12-01T00:18:43.380Z,44.63
2022-12-01T00:21:17.461Z,38.55
2022-12-01T00:23:48.306Z,41.30
2022-12-01T00:26:16.562Z,39.83
2022-12-01T00:28:43.016Z,35.45
2022-12-01T00:31:11.116Z,36.58
2022-12-01T00:33:38.487Z,35.88
2022-12-01T00:36:05.850Z,37.17
2022-12-01T00:38:33.165Z,27.83
2022-12-01T00:40:59.549Z,29.15
2022-12-01T00:43:26.048Z,35.20
2022-12-01T00:45:54.894Z,43.95
2022-12-01T00:48:21.655Z,28.33
2022-12-01T00:50:50.934Z,32.20
2022-12-01T00:53:17.250Z,34.65
2022-12-01T00:55:43.641Z,33.85
2022-12-01T00:58:10.155Z,44.90
2022-12-01T01:00:36.809Z,31.38
2022-12-01T01:03:03.504Z,34.65
2022-12-01T01:05:29.874Z,32.42
2022-12-01T01:07:59.254Z,35.58
2022-12-01T01:10:25.630Z,41.50
2022-12-01T01:12:52.106Z,39.92
2022-12-01T01:15:19.206Z,33.92
2022-12-01T01:17:45.641Z,28.77
2022-12-01T01:20:12.435Z,41.17
2022-12-01T01:22:38.769Z,37.10
2022-12-01T01:25:05.751Z,31.25
2022-12-01T01:27:34.607Z,39.60
2022-12-01T01:30:00.996Z,35.35
2022-12-01T01:32:30.085Z,34.08
2022-12-01T01:34:56.603Z,34.35
2022-12-01T01:37:23.208Z,37.80
2022-12-01T01:39:49.783Z,41.65
2022-12-01T01:42:20.135Z,33.40
2022-12-01T01:44:57.996Z,35.70
2022-12-01T01:47:34.854Z,34.75
2022-12-01T01:50:05.259Z,36.17
2022-12-01T01:52:33.658Z,34.90
2022-12-01T01:55:01.075Z,32.67
2022-12-01T01:57:30.874Z,36.83
2022-12-01T02:00:10.702Z,29.10
2022-12-01T02:02:38.493Z,23.33
2022-12-01T02:05:07.627Z,27.25
2022-12-01T02:07:34.197Z,28.55
2022-12-01T02:10:00.580Z,34.45
2022-12-01T02:12:44.806Z,32.05
2022-12-01T02:15:22.317Z,22.45
2022-12-01T02:18:14.795Z,33.35
2022-12-01T02:21:02.897Z,36.28
2022-12-01T02:24:11.224Z,34.53
2022-12-01T02:26:50.571Z,21.85
2022-12-01T02:29:41.763Z,33.13
2022-12-01T02:32:26.739Z,23.27
2022-12-01T02:35:03.683Z,24.83
2022-12-01T02:37:42.443Z,30.98
2022-12-01T02:40:30.097Z,25.20
2022-12-01T02:43:03.732Z,31.52
2022-12-01T02:45:43.032Z,28.05
2022-12-01T02:48:20.469Z,23.27
2022-12-01T02:50:47.349Z,31.50
2022-12-01T02:53:17.228Z,29.42
2022-12-01T02:55:49.298Z,27.80
2022-12-01T02:58:15.710Z,25.20
2022-12-01T03:01:04.810Z,26.60
2022-12-01T03:03:40.845Z,28.13
2022-12-01T03:06:22.057Z,25.35
2022-12-01T03:09:00.221Z,34.08
2022-12-01T03:11:42.110Z,36.22
2022-12-01T03:14:22.421Z,28.45
2022-12-01T03:16:53.974Z,32.28
2022-12-01T03:19:36.362Z,26.42
2022-12-01T03:22:11.854Z,27.83
2022-12-01T03:27:06.314Z,37.22
2022-12-01T03:29:40.948Z,33.00
2022-12-01T03:32:13.014Z,30.58
2022-12-01T03:34:47.394Z,27.65
2022-12-01T03:37:24.180Z,36.70
2022-12-01T03:39:58.611Z,33.47
2022-12-01T03:42:35.957Z,27.88
2022-12-01T03:45:07.682Z,36.17
2022-12-01T03:47:35.163Z,33.95
2022-12-01T03:50:03.493Z,44.83
2022-12-01T03:53:03.109Z,32.63
2022-12-01T03:55:31.989Z,33.33
2022-12-01T03:58:03.975Z,36.78
2022-12-01T04:00:31.266Z,31.65
2022-12-01T04:02:59.572Z,28.90
2022-12-01T04:05:26.997Z,38.10
2022-12-01T04:07:53.762Z,34.10
2022-12-01T04:10:20.392Z,35.80
2022-12-01T04:12:47.117Z,36.42
2022-12-01T04:15:14.951Z,42.85
2022-12-01T04:17:42.981Z,35.00
2022-12-01T04:20:11.225Z,44.47
2022-12-01T04:22:37.713Z,37.53
2022-12-01T04:25:06.600Z,38.75
2022-12-01T04:27:33.382Z,40.28
2022-12-01T04:29:59.951Z,33.85
2022-12-01T04:32:26.902Z,41.80
2022-12-01T04:34:53.665Z,33.50
2022-12-01T04:37:20.182Z,37.55
2022-12-01T04:39:46.603Z,47.38
2022-12-01T04:42:13.100Z,42.53
2022-12-01T04:44:39.859Z,40.08
2022-12-01T04:47:06.444Z,35.95
2022-12-01T04:49:33.521Z,48.38
2022-12-01T04:51:59.920Z,41.90
2022-12-01T04:54:26.524Z,38.47
2022-12-01T04:56:53.187Z,38.90
2022-12-01T04:59:20.098Z,42.22
2022-12-01T05:01:46.760Z,37.38
2022-12-01T05:04:14.330Z,36.83
2022-12-01T05:06:41.038Z,40.22
2022-12-01T05:09:08.144Z,40.28
2022-12-01T05:11:34.486Z,41.47
2022-12-01T05:14:01.385Z,35.65
2022-12-01T05:16:30.678Z,39.00
2022-12-01T05:18:59.810Z,44.72
2022-12-01T05:21:26.132Z,38.20
2022-12-01T05:23:52.792Z,41.97
2022-12-01T05:26:19.439Z,35.75
2022-12-01T05:28:46.108Z,38.38
2022-12-01T05:31:12.502Z,41.78
2022-12-01T05:33:39.892Z,34.28
2022-12-01T05:36:06.555Z,39.97
2022-12-01T05:38:32.880Z,36.95
2022-12-01T05:40:59.360Z,37.40
2022-12-01T05:43:29.285Z,50.85
2022-12-01T05:45:56.251Z,36.35
2022-12-01T05:48:22.796Z,39.47
2022-12-01T05:50:49.286Z,39.30
2022-12-01T05:53:15.890Z,36.63
2022-12-01T05:55:42.411Z,40.17
2022-12-01T05:58:09.397Z,37.20
2022-12-01T06:00:40.900Z,46.33
2022-12-01T06:03:11.678Z,38.58
2022-12-01T06:05:39.346Z,43.08
2022-12-01T06:08:06.041Z,33.78
2022-12-01T06:10:32.752Z,36.47
2022-12-01T06:12:59.237Z,32.58
2022-12-01T06:15:26.490Z,40.40
2022-12-01T06:17:52.919Z,39.70
2022-12-01T06:20:19.450Z,37.80
2022-12-01T06:22:45.809Z,51.60
2022-12-01T06:25:12.312Z,41.70
2022-12-01T06:27:39.071Z,40.10
2022-12-01T06:30:06.289Z,47.60
2022-12-01T06:32:32.661Z,44.70
2022-12-01T06:34:59.132Z,51.55
2022-12-01T06:37:26.983Z,39.65
2022-12-01T06:39:53.538Z,40.55
2022-12-01T06:42:19.844Z,47.38
2022-12-01T06:44:46.198Z,43.42
2022-12-01T06:47:12.771Z,44.47
2022-12-01T06:49:39.091Z,34.83
2022-12-01T06:52:05.663Z,38.25
2022-12-01T06:54:31.977Z,44.97
2022-12-01T06:56:58.600Z,46.92
2022-12-01T06:59:25.829Z,38.25
2022-12-01T07:01:52.720Z,45.00
2022-12-01T07:04:19.341Z,38.08
2022-12-01T07:06:45.644Z,45.17
2022-12-01T07:09:12.314Z,41.70
2022-12-01T07:11:39.034Z,53.63
2022-12-01T07:14:05.456Z,37.80
2022-12-01T07:16:32.027Z,48.67
2022-12-01T07:18:58.348Z,43.97
2022-12-01T07:21:24.803Z,42.05
2022-12-01T07:23:51.121Z,48.85
2022-12-01T07:26:18.467Z,45.75
2022-12-01T07:28:45.543Z,48.60
2022-12-01T07:31:18.102Z,59.42
2022-12-01T07:33:44.750Z,52.60
2022-12-01T07:36:12.213Z,47.38
2022-12-01T07:38:39.215Z,50.58
2022-12-01T07:41:10.197Z,51.42
2022-12-01T07:43:36.999Z,46.38
2022-12-01T07:46:18.788Z,48.90
2022-12-01T07:48:48.752Z,41.92
2022-12-01T07:51:16.257Z,51.22
2022-12-01T07:53:43.942Z,51.05
2022-12-01T07:56:10.416Z,46.30
2022-12-01T07:58:37.485Z,62.65
2022-12-01T08:01:16.142Z,39.72
2022-12-01T08:03:43.375Z,48.65
2022-12-01T08:06:10.477Z,47.05
2022-12-01T08:08:39.823Z,43.97
2022-12-01T08:11:14.280Z,52.50
2022-12-01T08:13:41.928Z,60.85
2022-12-01T08:16:14.025Z,58.85
2022-12-01T08:18:42.051Z,44.28
2022-12-01T08:21:11.051Z,52.58
2022-12-01T08:23:37.483Z,51.85
2022-12-01T08:26:06.136Z,61.13
2022-12-01T08:28:35.293Z,52.88
2022-12-01T08:31:12.362Z,63.00
2022-12-01T08:33:39.109Z,54.28
2022-12-01T08:36:05.976Z,56.58
2022-12-01T08:38:32.780Z,45.65
2022-12-01T08:41:04.070Z,57.33
2022-12-01T08:46:18.084Z,64.65
2022-12-01T08:48:47.556Z,54.65
2022-12-01T08:51:16.711Z,66.47
2022-12-01T08:53:46.500Z,59.03
2022-12-01T08:56:26.543Z,48.90
2022-12-01T08:58:57.073Z,65.55
2022-12-01T09:01:23.913Z,58.75
2022-12-01T09:03:51.052Z,81.13
2022-12-01T09:06:20.036Z,56.05
2022-12-01T09:08:47.451Z,60.92
2022-12-01T09:11:17.565Z,66.38
2022-12-01T09:13:49.923Z,51.28
2022-12-01T09:16:18.710Z,57.08
2022-12-01T09:18:46.763Z,53.75
2022-12-01T09:21:14.333Z,48.28
2022-12-01T09:23:41.350Z,53.65
2022-12-01T09:26:13.213Z,61.08
2022-12-01T09:28:40.877Z,50.47
2022-12-01T09:31:09.387Z,69.75
2022-12-01T09:33:36.028Z,61.22
2022-12-01T09:36:03.841Z,69.15
2022-12-01T09:38:31.869Z,50.83
2022-12-01T09:41:06.895Z,51.10
2022-12-01T09:43:48.923Z,51.80
2022-12-01T09:46:24.054Z,46.50
2022-12-01T09:48:53.889Z,61.03
2022-12-01T09:51:22.803Z,44.70
2022-12-01T09:53:52.885Z,48.80
2022-12-01T09:56:31.556Z,51.90
2022-12-01T09:59:04.718Z,58.40
2022-12-01T10:01:36.435Z,65.03
2022-12-01T10:04:42.973Z,58.03
2022-12-01T10:07:27.878Z,62.53
2022-12-01T10:10:24.756Z,53.60
2022-12-01T10:12:51.306Z,62.83
2022-12-01T10:15:34.755Z,56.53
2022-12-01T10:18:10.676Z,53.78
2022-12-01T10:20:48.564Z,60.63
2022-12-01T10:23:34.210Z,60.65
2022-12-01T10:26:17.802Z,68.30
2022-12-01T10:29:00.411Z,53.47
2022-12-01T10:31:54.892Z,76.07
2022-12-01T10:34:29.847Z,77.35
2022-12-01T10:36:57.434Z,58.05
2022-12-01T10:39:46.092Z,69.95
2022-12-01T10:42:35.940Z,57.72
2022-12-01T10:45:06.250Z,64.22
2022-12-01T10:47:32.807Z,74.78
2022-12-01T10:49:59.256Z,72.45
2022-12-01T10:52:37.831Z,65.32
2022-12-01T10:55:23.245Z,61.75
2022-12-01T10:57:50.714Z,75.78
2022-12-01T11:00:57.936Z,76.65
2022-12-01T11:03:28.671Z,71.53
2022-12-01T11:05:58.134Z,62.45
2022-12-01T11:08:41.367Z,72.70
2022-12-01T11:11:25.670Z,63.75
2022-12-01T11:13:52.607Z,67.80
2022-12-01T11:16:45.755Z,52.50
2022-12-01T11:19:26.811Z,72.47
2022-12-01T11:21:57.520Z,74.60
2022-12-01T11:24:42.332Z,60.00
2022-12-01T11:27:31.783Z,66.85
2022-12-01T11:30:02.812Z,67.30
2022-12-01T11:32:32.305Z,62.88
2022-12-01T11:35:04.363Z,58.70
2022-12-01T11:37:38.579Z,66.90
2022-12-01T11:40:25.460Z,64.28
2022-12-01T11:42:59.811Z,51.00
2022-12-01T11:45:36.877Z,63.25
2022-12-01T11:48:12.799Z,62.90
2022-12-01T11:50:42.209Z,50.85
2022-12-01T11:53:27.912Z,56.75
2022-12-01T11:56:26.831Z,55.90
2022-12-01T11:59:05.399Z,66.32
2022-12-01T12:01:45.268Z,60.38
2022-12-01T12:04:39.372Z,69.65
2022-12-01T12:07:31.597Z,57.92
2022-12-01T12:10:30.735Z,56.22
2022-12-01T12:13:09.613Z,62.60
2022-12-01T12:16:03.887Z,54.97
2022-12-01T12:18:45.982Z,56.53
2022-12-01T12:21:32.912Z,62.63
2022-12-01T12:24:17.999Z,54.08
2022-12-01T12:26:57.252Z,49.67
2022-12-01T12:29:54.416Z,48.90
2022-12-01T12:32:39.700Z,48.75
2022-12-01T12:35:06.034Z,49.47
2022-12-01T12:37:59.962Z,65.07
2022-12-01T12:40:38.286Z,61.95
2022-12-01T12:43:34.892Z,55.17
2022-12-01T12:46:11.788Z,60.90
2022-12-01T12:49:25.766Z,50.70
2022-12-01T12:52:17.786Z,50.33
2022-12-01T12:54:53.261Z,47.30
2022-12-01T13:00:25.871Z,55.13
2022-12-01T13:03:13.732Z,46.53
2022-12-01T13:05:56.018Z,51.50
2022-12-01T13:08:35.526Z,53.70
2022-12-01T13:11:13.245Z,37.75
2022-12-01T13:13:56.963Z,53.17
2022-12-01T13:16:30.944Z,51.00
2022-12-01T13:19:05.445Z,48.70
2022-12-01T13:21:42.150Z,58.27
2022-12-01T13:24:17.302Z,58.92
2022-12-01T13:26:51.372Z,42.47
2022-12-01T13:29:21.511Z,45.63
2022-12-01T13:31:51.135Z,49.45
2022-12-01T13:34:37.867Z,55.55
2022-12-01T13:37:04.623Z,51.42
2022-12-01T13:39:33.624Z,53.60
2022-12-01T13:42:05.135Z,49.03
2022-12-01T13:44:33.839Z,47.28
2022-12-01T13:47:42.077Z,60.95
2022-12-01T13:50:37.649Z,54.25
2022-12-01T13:53:17.968Z,49.28
2022-12-01T13:56:02.696Z,43.42
2022-12-01T13:58:34.987Z,53.33
2022-12-01T14:01:21.360Z,40.55
2022-12-01T14:03:58.015Z,43.38
2022-12-01T14:06:46.003Z,60.22
2022-12-01T14:09:38.105Z,52.17
2022-12-01T14:12:31.010Z,47.42
2022-12-01T14:15:02.875Z,41.60
2022-12-01T14:17:52.352Z,42.88
2022-12-01T14:20:22.495Z,38.72
2022-12-01T14:23:10.536Z,45.58
2022-12-01T14:25:36.908Z,40.20
2022-12-01T14:28:04.329Z,32.22
2022-12-01T14:30:40.510Z,36.83
2022-12-01T14:34:01.557Z,43.55
2022-12-01T14:36:41.882Z,49.58
2022-12-01T14:39:11.027Z,42.65
2022-12-01T14:41:48.617Z,54.28
2022-12-01T14:44:31.004Z,46.28
2022-12-01T14:47:00.404Z,39.75
2022-12-01T14:49:37.639Z,44.22
2022-12-01T14:52:07.009Z,36.63
2022-12-01T14:54:45.401Z,50.75
2022-12-01T14:57:16.873Z,52.28
2022-12-01T14:59:44.462Z,45.40
2022-12-01T15:02:12.402Z,40.47
2022-12-01T15:05:08.716Z,47.83
2022-12-01T15:10:06.369Z,33.38
2022-12-01T15:12:32.773Z,38.03
2022-12-01T15:14:59.624Z,32.88
2022-12-01T15:17:34.993Z,47.15
2022-12-01T15:22:33.671Z,43.78
2022-12-01T15:25:08.544Z,36.72
2022-12-01T15:27:34.859Z,47.97
2022-12-01T15:30:02.005Z,51.40
2022-12-01T15:32:29.421Z,43.05
2022-12-01T15:34:56.936Z,53.03
2022-12-01T15:37:26.037Z,51.63
2022-12-01T15:40:00.948Z,44.10
2022-12-01T15:42:38.880Z,41.28
2022-12-01T15:45:24.165Z,50.75
2022-12-01T15:47:52.539Z,42.45
2022-12-01T15:50:33.158Z,52.97
2022-12-01T15:53:02.983Z,45.80
2022-12-01T15:55:33.361Z,48.15
2022-12-01T15:58:01.052Z,45.33
2022-12-01T16:00:27.497Z,48.10
2022-12-01T16:02:58.986Z,45.42
2022-12-01T16:05:28.678Z,39.83
2022-12-01T16:10:41.647Z,38.80
2022-12-01T16:13:42.339Z,47.22
2022-12-01T16:16:38.117Z,42.63
2022-12-01T16:19:07.239Z,67.47
2022-12-01T16:22:01.514Z,45.25
2022-12-01T16:24:37.585Z,39.83
2022-12-01T16:27:07.350Z,53.50
2022-12-01T16:29:50.815Z,43.63
2022-12-01T16:32:27.593Z,40.97
2022-12-01T16:34:54.250Z,45.50
2022-12-01T16:37:20.841Z,48.20
2022-12-01T16:39:47.507Z,44.00
2022-12-01T16:42:15.452Z,44.90
2022-12-01T16:44:43.571Z,52.53
2022-12-01T16:47:14.255Z,50.67
2022-12-01T16:49:40.908Z,39.00
2022-12-01T16:52:36.579Z,44.38
2022-12-01T16:54:53.971Z,48.72
2022-12-01T16:57:20.282Z,40.03
2022-12-01T16:59:46.778Z,38.70
2022-12-01T17:02:13.238Z,35.15
2022-12-01T17:04:39.610Z,41.97
2022-12-01T17:07:07.017Z,49.63
2022-12-01T17:09:33.654Z,38.72
2022-12-01T17:12:00.173Z,35.45
2022-12-01T17:14:26.543Z,46.97
2022-12-01T17:16:53.006Z,35.08
2022-12-01T17:19:20.125Z,32.47
2022-12-01T17:21:47.114Z,35.35
2022-12-01T17:24:18.685Z,36.60
2022-12-01T17:26:45.500Z,41.85
2022-12-01T17:29:11.845Z,45.67
2022-12-01T17:31:38.501Z,39.95
2022-12-01T17:34:04.961Z,38.72
2022-12-01T17:36:31.402Z,45.80
2022-12-01T17:38:57.828Z,41.00
2022-12-01T17:41:24.193Z,42.72
2022-12-01T17:43:51.028Z,45.33
2022-12-01T17:46:18.544Z,50.95
2022-12-01T17:48:46.317Z,38.20
2022-12-01T17:51:14.094Z,36.88
2022-12-01T17:53:40.941Z,37.60
2022-12-01T17:56:09.269Z,37.08
2022-12-01T17:58:36.416Z,32.97
2022-12-01T18:01:05.398Z,37.42
2022-12-01T18:03:32.020Z,36.55
2022-12-01T18:06:00.555Z,39.67
2022-12-01T18:08:29.383Z,24.27
2022-12-01T18:10:56.187Z,32.13
2022-12-01T18:13:22.776Z,42.78
2022-12-01T18:15:49.576Z,33.92
2022-12-01T18:18:15.993Z,36.40
2022-12-01T18:20:43.749Z,37.30
2022-12-01T18:23:12.160Z,37.05
2022-12-01T18:25:40.076Z,51.63
2022-12-01T18:28:07.179Z,36.72
2022-12-01T18:30:34.481Z,35.70
2022-12-01T18:33:01.952Z,40.90
2022-12-01T18:35:31.801Z,33.65
2022-12-01T18:37:58.990Z,36.45
2022-12-01T18:40:25.366Z,40.80
2022-12-01T18:42:51.708Z,39.00
2022-12-01T18:45:21.243Z,37.75
2022-12-01T18:47:48.317Z,46.25
2022-12-01T18:50:15.226Z,38.45
2022-12-01T18:52:41.760Z,37.60
2022-12-01T18:55:08.411Z,36.55
2022-12-01T18:57:35.080Z,49.90
2022-12-01T19:00:02.081Z,42.40
2022-12-01T19:02:28.847Z,43.95
2022-12-01T19:04:55.289Z,35.58
2022-12-01T19:07:26.488Z,46.97
2022-12-01T19:09:55.871Z,31.38
2022-12-01T19:12:22.187Z,42.08
2022-12-01T19:14:48.985Z,37.15
2022-12-01T19:17:15.421Z,36.55
2022-12-01T19:19:42.186Z,39.22
2022-12-01T19:22:08.841Z,42.15
2022-12-01T19:24:35.229Z,41.28
2022-12-01T19:27:01.625Z,38.15
2022-12-01T19:29:28.267Z,37.38
2022-12-01T19:31:54.770Z,33.08
2022-12-01T19:34:21.496Z,44.47
2022-12-01T19:36:48.058Z,46.97
2022-12-01T19:39:14.499Z,43.50
2022-12-01T19:41:41.017Z,46.45
2022-12-01T19:44:07.490Z,40.03
2022-12-01T19:46:34.272Z,40.92
2022-12-01T19:49:01.884Z,46.33
2022-12-01T19:51:34.375Z,35.75
2022-12-01T19:54:01.605Z,51.15
2022-12-01T19:56:28.541Z,41.60
2022-12-01T19:58:56.316Z,46.67
2022-12-01T20:01:22.836Z,49.10
2022-12-01T20:03:51.815Z,50.30
2022-12-01T20:06:24.302Z,46.63
2022-12-01T20:08:51.400Z,38.13
2022-12-01T20:11:18.437Z,41.35
2022-12-01T20:13:46.171Z,45.00
2022-12-01T20:16:16.600Z,49.63
2022-12-01T20:18:43.328Z,36.38
2022-12-01T20:21:11.203Z,39.00
2022-12-01T20:23:38.091Z,48.58
2022-12-01T20:26:06.747Z,41.17
2022-12-01T20:28:34.101Z,44.85
2022-12-01T20:31:00.806Z,38.95
2022-12-01T20:33:28.151Z,51.35
2022-12-01T20:35:54.799Z,47.22
2022-12-01T20:38:27.051Z,49.97
2022-12-01T20:40:54.112Z,47.15
2022-12-01T20:43:20.591Z,37.20
2022-12-01T20:45:47.256Z,41.53
2022-12-01T20:48:13.838Z,40.78
2022-12-01T20:50:40.575Z,36.58
2022-12-01T20:53:07.185Z,38.83
2022-12-01T20:55:35.526Z,31.00
2022-12-01T20:58:02.604Z,30.98
2022-12-01T21:00:29.463Z,35.05
2022-12-01T21:02:55.809Z,29.25
2022-12-01T21:05:24.334Z,27.40
2022-12-01T21:07:50.840Z,25.55
2022-12-01T21:10:20.184Z,31.92
2022-12-01T21:12:51.782Z,27.23
2022-12-01T21:15:28.690Z,27.45
2022-12-01T21:18:03.662Z,27.05
2022-12-01T21:20:38.135Z,21.10
2022-12-01T21:23:14.691Z,26.77
2022-12-01T21:25:42.686Z,23.98
2022-12-01T21:28:22.963Z,19.85
2022-12-01T21:31:12.704Z,26.77
2022-12-01T21:33:40.740Z,28.58
2022-12-01T21:36:20.149Z,27.20
2022-12-01T21:38:49.382Z,23.48
2022-12-01T21:41:23.544Z,30.33
2022-12-01T21:43:50.022Z,28.10
2022-12-01T21:46:17.880Z,21.90
2022-12-01T21:48:45.086Z,21.52
2022-12-01T21:51:25.008Z,22.05
2022-12-01T21:53:53.747Z,25.33
2022-12-01T21:56:24.407Z,26.52
2022-12-01T21:58:52.423Z,31.20
2022-12-01T22:01:30.396Z,31.45
2022-12-01T22:04:02.043Z,30.65
2022-12-01T22:06:39.161Z,18.35
2022-12-01T22:09:34.390Z,30.95
2022-12-01T22:12:09.846Z,25.23
2022-12-01T22:17:06.191Z,23.83
2022-12-01T22:19:33.751Z,21.73
2022-12-01T22:22:09.405Z,18.73
2022-12-01T22:24:40.205Z,21.23
2022-12-01T22:27:21.191Z,23.63
2022-12-01T22:29:50.870Z,20.98
2022-12-01T22:32:17.437Z,25.02
2022-12-01T22:34:54.661Z,28.83
2022-12-01T22:37:24.193Z,24.70
2022-12-01T22:39:54.892Z,18.10
2022-12-01T22:42:30.866Z,22.55
2022-12-01T22:45:22.634Z,19.05
2022-12-01T22:47:49.156Z,21.42
2022-12-01T22:50:33.562Z,23.80
2022-12-01T22:53:11.888Z,24.77
2022-12-01T22:55:39.979Z,18.85
2022-12-01T22:58:34.935Z,23.70
2022-12-01T23:01:07.753Z,20.27
2022-12-01T23:03:34.312Z,20.85
2022-12-01T23:06:00.695Z,21.63
2022-12-01T23:08:27.105Z,20.73
2022-12-01T23:10:53.521Z,20.15
2022-12-01T23:13:22.896Z,23.33
2022-12-01T23:15:52.506Z,20.67
2022-12-01T23:18:23.363Z,26.55
2022-12-01T23:20:57.882Z,20.30
2022-12-01T23:23:35.602Z,16.27
2022-12-01T23:26:04.931Z,20.92
2022-12-01T23:28:31.735Z,18.98
2022-12-01T23:30:59.412Z,22.67
2022-12-01T23:33:33.920Z,21.58
2022-12-01T23:36:11.916Z,19.53
2022-12-01T23:38:41.759Z,26.38
2022-12-01T23:41:13.900Z,23.40
2022-12-01T23:43:44.213Z,26.00
2022-12-01T23:46:20.764Z,23.25
2022-12-01T23:48:51.363Z,31.75
2022-12-01T23:51:28.623Z,28.00
2022-12-01T23:53:56.750Z,21.25
2022-12-01T23:56:25.705Z,22.15
2022-12-01T23:58:54.347Z,32.22
